createdAt,value
2019-04-16T00:02:40.367Z,99.90
2019-04-16T00:05:34.988Z,99.90
2019-04-16T00:08:27.452Z,99.90
2019-04-16T00:11:05.262Z,99.90
2019-04-16T00:13:50.432Z,99.90
2019-04-16T00:16:27.912Z,99.90
2019-04-16T00:19:06.531Z,99.90
2019-04-16T00:22:02.867Z,99.90
2019-04-16T00:24:43.275Z,99.90
2019-04-16T00:27:21.133Z,99.90
2019-04-16T00:30:03.881Z,99.90
2019-04-16T00:32:39.291Z,99.90
2019-04-16T00:35:17.343Z,99.90
2019-04-16T00:37:55.631Z,99.90
2019-04-16T00:40:34.819Z,99.90
2019-04-16T00:43:12.183Z,99.90
2019-04-16T00:46:00.998Z,99.90
2019-04-16T00:48:38.691Z,99.90
2019-04-16T00:51:16.277Z,99.90
2019-04-16T00:54:09.873Z,99.90
2019-04-16T00:56:46.643Z,99.90
2019-04-16T00:59:35.947Z,99.90
2019-04-16T01:02:14.247Z,99.90
2019-04-16T01:04:51.582Z,99.90
2019-04-16T01:07:29.007Z,99.90
2019-04-16T01:10:07.440Z,99.90
2019-04-16T01:12:56.741Z,99.90
2019-04-16T01:15:34.286Z,99.90
2019-04-16T01:18:11.588Z,99.90
2019-04-16T01:20:49.356Z,99.90
2019-04-16T01:23:26.632Z,99.80
2019-04-16T01:26:03.848Z,99.30
2019-04-16T01:28:54.088Z,99.10
2019-04-16T01:31:45.696Z,98.90
2019-04-16T01:34:47.040Z,98.80
2019-04-16T01:37:42.809Z,96.00
2019-04-16T01:40:25.924Z,96.20
2019-04-16T01:43:03.187Z,95.30
2019-04-16T01:45:40.502Z,94.90
2019-04-16T01:48:17.986Z,94.20
2019-04-16T01:50:55.820Z,94.30
2019-04-16T01:53:33.015Z,94.60
2019-04-16T01:56:11.029Z,94.00
2019-04-16T01:58:48.352Z,94.50
2019-04-16T02:01:25.799Z,94.20
2019-04-16T02:04:03.082Z,94.00
2019-04-16T02:06:57.325Z,93.70
2019-04-16T02:09:35.783Z,93.70
2019-04-16T02:12:14.071Z,93.70
2019-04-16T02:15:06.072Z,93.60
2019-04-16T02:17:43.445Z,93.50
2019-04-16T02:20:32.575Z,93.60
2019-04-16T02:23:09.895Z,93.30
2019-04-16T02:25:48.535Z,93.30
2019-04-16T02:28:28.355Z,93.40
2019-04-16T02:31:13.109Z,93.40
2019-04-16T02:33:45.310Z,93.30
2019-04-16T02:36:23.288Z,93.30
2019-04-16T02:39:00.508Z,93.40
2019-04-16T02:41:39.296Z,92.80
2019-04-16T02:44:17.153Z,93.20
2019-04-16T02:46:55.491Z,93.30
2019-04-16T02:49:33.363Z,93.20
2019-04-16T02:52:23.038Z,92.90
2019-04-16T02:55:25.421Z,93.20
2019-04-16T02:58:12.923Z,93.30
2019-04-16T03:01:27.780Z,93.50
2019-04-16T03:04:11.336Z,93.60
2019-04-16T03:06:48.998Z,93.30
2019-04-16T03:09:26.674Z,93.20
2019-04-16T03:12:04.905Z,93.00
2019-04-16T03:14:41.980Z,93.60
2019-04-16T03:17:39.499Z,93.40
2019-04-16T03:20:20.804Z,93.90
2019-04-16T03:22:56.922Z,94.00
2019-04-16T03:25:35.376Z,94.10
2019-04-16T03:28:12.844Z,94.90
2019-04-16T03:30:50.653Z,95.00
2019-04-16T03:33:28.209Z,94.90
2019-04-16T03:36:05.999Z,95.00
2019-04-16T03:38:43.083Z,94.90
2019-04-16T03:41:21.091Z,95.10
2019-04-16T03:43:58.259Z,95.00
2019-04-16T03:46:35.869Z,94.90
2019-04-16T03:49:13.713Z,95.00
2019-04-16T03:51:50.896Z,95.10
2019-04-16T03:54:28.282Z,94.80
2019-04-16T03:57:06.027Z,95.10
2019-04-16T03:59:43.335Z,95.40
2019-04-16T04:02:22.902Z,95.00
2019-04-16T04:05:01.704Z,95.00
2019-04-16T04:07:43.822Z,95.10
2019-04-16T04:10:29.576Z,95.00
2019-04-16T04:12:57.181Z,94.80
2019-04-16T04:15:34.683Z,94.50
2019-04-16T04:18:12.890Z,94.60
2019-04-16T04:20:50.973Z,94.20
2019-04-16T04:23:29.334Z,94.50
2019-04-16T04:26:08.936Z,94.40
2019-04-16T04:28:48.596Z,94.40
2019-04-16T04:31:25.455Z,94.30
2019-04-16T04:34:02.666Z,94.40
2019-04-16T04:36:40.463Z,94.40
2019-04-16T04:39:18.170Z,94.30
2019-04-16T04:41:56.501Z,94.30
2019-04-16T04:44:36.904Z,94.40
2019-04-16T04:47:17.830Z,93.10
2019-04-16T04:49:53.388Z,92.40
2019-04-16T04:52:31.298Z,91.70
2019-04-16T04:55:09.565Z,91.20
2019-04-16T04:57:46.850Z,90.80
2019-04-16T05:00:24.136Z,90.30
2019-04-16T05:03:01.841Z,88.50
2019-04-16T05:05:47.252Z,86.80
2019-04-16T05:08:24.400Z,85.40
2019-04-16T05:11:03.037Z,84.30
2019-04-16T05:13:40.592Z,83.00
2019-04-16T05:16:17.965Z,81.00
2019-04-16T05:18:55.848Z,81.40
2019-04-16T05:21:33.257Z,81.60
2019-04-16T05:24:22.686Z,83.50
2019-04-16T05:26:59.993Z,85.10
2019-04-16T05:29:49.566Z,84.60
2019-04-16T05:32:32.959Z,84.70
2019-04-16T05:35:09.515Z,85.50
2019-04-16T05:37:45.369Z,87.00
2019-04-16T05:40:34.442Z,85.80
2019-04-16T05:43:15.221Z,83.80
2019-04-16T05:45:54.005Z,82.20
2019-04-16T05:48:32.199Z,81.30
2019-04-16T05:51:09.373Z,76.10
2019-04-16T05:54:12.390Z,72.50
2019-04-16T05:56:52.394Z,71.30
2019-04-16T05:59:37.533Z,69.20
2019-04-16T06:02:25.840Z,67.00
2019-04-16T06:05:03.171Z,64.80
2019-04-16T06:07:40.998Z,65.60
2019-04-16T06:10:19.609Z,65.50
2019-04-16T06:13:17.147Z,65.00
2019-04-16T06:16:13.213Z,61.30
2019-04-16T06:19:11.546Z,61.40
2019-04-16T06:22:25.568Z,60.90
2019-04-16T06:25:18.675Z,61.40
2019-04-16T06:28:16.716Z,60.60
2019-04-16T06:31:13.318Z,61.10
2019-04-16T06:34:09.356Z,58.90
2019-04-16T06:37:05.908Z,57.50
2019-04-16T06:40:08.968Z,57.70
2019-04-16T06:42:55.032Z,56.60
2019-04-16T06:45:40.254Z,55.80
2019-04-16T06:48:25.952Z,55.20
2019-04-16T06:51:31.814Z,56.40
2019-04-16T06:54:34.446Z,55.10
2019-04-16T06:57:29.784Z,53.90
2019-04-16T07:00:35.057Z,52.30
2019-04-16T07:03:38.292Z,51.00
2019-04-16T07:06:43.549Z,50.60
2019-04-16T07:09:26.497Z,51.20
2019-04-16T07:12:28.814Z,52.00
2019-04-16T07:15:22.087Z,52.50
2019-04-16T07:17:56.991Z,51.70
2019-04-16T07:20:34.083Z,50.80
2019-04-16T07:23:11.479Z,51.10
2019-04-16T07:25:49.317Z,51.40
2019-04-16T07:28:35.857Z,48.10
2019-04-16T07:31:32.841Z,47.80
2019-04-16T07:34:10.492Z,47.30
2019-04-16T07:37:06.493Z,46.70
2019-04-16T07:40:08.733Z,46.30
2019-04-16T07:43:15.765Z,43.70
2019-04-16T07:46:10.981Z,44.10
2019-04-16T07:49:17.561Z,43.90
2019-04-16T07:52:12.969Z,42.60
2019-04-16T07:55:28.733Z,42.10
2019-04-16T07:58:06.131Z,43.30
2019-04-16T08:00:43.752Z,43.40
2019-04-16T08:03:23.623Z,43.30
2019-04-16T08:06:00.126Z,43.20
2019-04-16T08:08:37.840Z,42.80
2019-04-16T08:11:15.470Z,41.60
2019-04-16T08:13:52.864Z,40.90
2019-04-16T08:16:30.194Z,41.20
2019-04-16T08:19:07.403Z,42.10
2019-04-16T08:21:44.750Z,41.60
2019-04-16T08:24:30.485Z,41.30
2019-04-16T08:27:09.907Z,41.60
2019-04-16T08:29:46.506Z,39.80
2019-04-16T08:32:25.716Z,38.50
2019-04-16T08:35:02.494Z,40.00
2019-04-16T08:37:48.859Z,40.70
2019-04-16T08:40:19.172Z,41.00
2019-04-16T08:42:57.272Z,41.10
2019-04-16T08:45:39.199Z,41.20
2019-04-16T08:48:18.643Z,40.10
2019-04-16T08:50:57.885Z,39.20
2019-04-16T08:53:35.418Z,38.80
2019-04-16T08:56:12.108Z,39.80
2019-04-16T08:58:56.336Z,40.70
2019-04-16T09:01:33.502Z,40.80
2019-04-16T09:04:10.990Z,40.90
2019-04-16T09:06:48.984Z,41.30
2019-04-16T09:09:41.849Z,42.10
2019-04-16T09:12:19.321Z,43.80
2019-04-16T09:14:56.662Z,47.80
2019-04-16T09:17:42.166Z,44.60
2019-04-16T09:20:26.166Z,45.20
2019-04-16T09:23:03.506Z,48.00
2019-04-16T09:26:22.632Z,47.30
2019-04-16T09:29:18.106Z,46.10
2019-04-16T09:32:04.507Z,43.70
2019-04-16T09:35:09.231Z,46.60
2019-04-16T09:37:58.902Z,48.00
2019-04-16T09:41:04.319Z,46.60
2019-04-16T09:43:47.623Z,47.90
2019-04-16T09:46:48.839Z,47.80
2019-04-16T09:49:05.132Z,48.70
2019-04-16T09:51:43.516Z,49.60
2019-04-16T09:54:21.265Z,48.70
2019-04-16T09:56:59.724Z,49.50
2019-04-16T09:59:44.704Z,49.00
2019-04-16T10:02:26.910Z,47.40
2019-04-16T10:05:04.824Z,48.20
2019-04-16T10:07:42.242Z,47.50
2019-04-16T10:10:19.414Z,47.90
2019-04-16T10:12:56.613Z,46.90
2019-04-16T10:15:33.797Z,45.70
2019-04-16T10:18:12.342Z,45.80
2019-04-16T10:20:49.802Z,45.40
2019-04-16T10:23:41.776Z,46.70
2019-04-16T10:26:19.782Z,44.80
2019-04-16T10:28:57.885Z,43.20
2019-04-16T10:31:35.012Z,44.80
2019-04-16T10:34:13.096Z,45.00
2019-04-16T10:36:56.611Z,46.40
2019-04-16T10:39:39.695Z,46.90
2019-04-16T10:42:45.160Z,46.30
2019-04-16T10:45:36.826Z,47.00
2019-04-16T10:48:48.836Z,46.50
2019-04-16T10:51:48.180Z,48.00
2019-04-16T10:55:02.977Z,48.10
2019-04-16T10:57:59.286Z,47.50
2019-04-16T11:00:43.397Z,48.10
2019-04-16T11:03:36.250Z,47.50
2019-04-16T11:06:23.396Z,46.60
2019-04-16T11:09:01.354Z,48.00
2019-04-16T11:11:40.261Z,47.40
2019-04-16T11:14:17.370Z,48.20
2019-04-16T11:16:55.340Z,48.00
2019-04-16T11:19:32.717Z,49.40
2019-04-16T11:22:09.810Z,51.10
2019-04-16T11:24:47.517Z,48.20
2019-04-16T11:27:25.152Z,48.90
2019-04-16T11:30:02.902Z,49.30
2019-04-16T11:32:40.558Z,49.70
2019-04-16T11:35:18.858Z,48.40
2019-04-16T11:37:56.478Z,47.70
2019-04-16T11:40:33.868Z,46.50
2019-04-16T11:43:11.457Z,47.10
2019-04-16T11:45:49.362Z,47.20
2019-04-16T11:48:26.802Z,46.90
2019-04-16T11:51:04.211Z,45.40
2019-04-16T11:53:41.550Z,45.20
2019-04-16T11:56:22.281Z,46.50
2019-04-16T11:58:58.878Z,45.70
2019-04-16T12:01:55.529Z,46.10
2019-04-16T12:04:55.866Z,45.70
2019-04-16T12:07:49.611Z,46.60
2019-04-16T12:10:59.104Z,47.70
2019-04-16T12:14:10.012Z,47.80
2019-04-16T12:17:04.306Z,45.10
2019-04-16T12:19:52.583Z,45.20
2019-04-16T12:22:49.591Z,46.00
2019-04-16T12:25:45.207Z,45.70
2019-04-16T12:28:42.361Z,46.30
2019-04-16T12:31:36.139Z,45.60
2019-04-16T12:34:35.399Z,45.60
2019-04-16T12:37:38.742Z,44.50
2019-04-16T12:40:49.578Z,42.90
2019-04-16T12:43:51.102Z,43.70
2019-04-16T12:46:46.581Z,45.70
2019-04-16T12:49:41.601Z,46.60
2019-04-16T12:52:38.406Z,46.50
2019-04-16T12:55:40.499Z,46.90
2019-04-16T12:58:35.905Z,47.40
2019-04-16T13:01:21.172Z,48.80
2019-04-16T13:04:13.804Z,48.80
2019-04-16T13:07:13.532Z,47.90
2019-04-16T13:10:12.860Z,48.10
2019-04-16T13:13:22.293Z,51.30
2019-04-16T13:16:07.816Z,51.60
2019-04-16T13:19:04.041Z,50.90
2019-04-16T13:21:49.100Z,51.00
2019-04-16T13:24:33.406Z,53.60
2019-04-16T13:27:36.619Z,53.80
2019-04-16T13:30:14.314Z,53.40
2019-04-16T13:32:51.873Z,54.20
2019-04-16T13:35:30.806Z,53.90
2019-04-16T13:38:09.591Z,54.60
2019-04-16T13:40:47.041Z,54.00
2019-04-16T13:43:33.785Z,54.10
2019-04-16T13:46:11.764Z,55.90
2019-04-16T13:48:59.762Z,55.40
2019-04-16T13:51:36.078Z,55.20
2019-04-16T13:54:34.021Z,56.10
2019-04-16T13:57:13.805Z,56.00
2019-04-16T14:00:06.535Z,55.30
2019-04-16T14:03:00.783Z,56.70
2019-04-16T14:05:39.044Z,57.30
2019-04-16T14:08:16.969Z,57.50
2019-04-16T14:10:54.742Z,56.80
2019-04-16T14:13:45.141Z,57.10
2019-04-16T14:16:23.393Z,55.60
2019-04-16T14:19:02.508Z,56.50
2019-04-16T14:21:39.790Z,56.90
2019-04-16T14:24:17.067Z,56.20
2019-04-16T14:26:57.788Z,57.30
2019-04-16T14:29:35.842Z,57.80
2019-04-16T14:32:14.646Z,58.10
2019-04-16T14:34:57.534Z,57.70
2019-04-16T14:37:35.027Z,57.60
2019-04-16T14:40:23.070Z,58.50
2019-04-16T14:43:00.425Z,58.20
2019-04-16T14:45:57.572Z,57.50
2019-04-16T14:48:23.591Z,57.20
2019-04-16T14:51:00.930Z,58.30
2019-04-16T14:53:51.513Z,58.30
2019-04-16T14:56:56.670Z,58.70
2019-04-16T14:59:53.026Z,60.30
2019-04-16T15:02:58.403Z,60.90
2019-04-16T15:05:44.675Z,60.80
2019-04-16T15:08:49.224Z,61.40
2019-04-16T15:12:02.962Z,61.60
2019-04-16T15:15:02.381Z,62.20
2019-04-16T15:17:48.010Z,62.70
2019-04-16T15:20:43.168Z,62.60
2019-04-16T15:23:35.252Z,63.40
2019-04-16T15:26:35.261Z,65.00
2019-04-16T15:29:25.532Z,62.90
2019-04-16T15:32:22.166Z,63.70
2019-04-16T15:35:01.894Z,62.70
2019-04-16T15:37:59.252Z,62.00
2019-04-16T15:40:40.380Z,64.50
2019-04-16T15:43:43.610Z,66.40
2019-04-16T15:46:48.116Z,66.40
2019-04-16T15:49:34.598Z,67.20
2019-04-16T15:52:49.783Z,68.40
2019-04-16T15:55:48.857Z,70.10
2019-04-16T15:58:45.079Z,70.10
2019-04-16T16:01:41.651Z,69.80
2019-04-16T16:04:50.007Z,70.80
2019-04-16T16:07:31.438Z,72.20
2019-04-16T16:10:21.355Z,73.10
2019-04-16T16:12:58.740Z,73.70
2019-04-16T16:15:40.232Z,72.20
2019-04-16T16:18:15.591Z,73.80
2019-04-16T16:20:55.371Z,74.40
2019-04-16T16:23:34.219Z,75.30
2019-04-16T16:26:11.538Z,76.00
2019-04-16T16:28:49.247Z,74.30
2019-04-16T16:31:26.936Z,75.20
2019-04-16T16:34:08.529Z,75.90
2019-04-16T16:36:43.998Z,76.80
2019-04-16T16:39:22.862Z,77.40
2019-04-16T16:42:00.873Z,77.70
2019-04-16T16:44:38.257Z,78.20
2019-04-16T16:47:34.701Z,79.30
2019-04-16T16:50:23.792Z,80.60
2019-04-16T16:53:13.702Z,79.60
2019-04-16T16:55:53.147Z,80.80
2019-04-16T16:58:40.290Z,81.80
2019-04-16T17:01:33.614Z,83.10
2019-04-16T17:04:14.404Z,83.70
2019-04-16T17:06:51.723Z,83.50
2019-04-16T17:09:33.923Z,85.60
2019-04-16T17:12:11.607Z,86.60
2019-04-16T17:14:49.314Z,87.80
2019-04-16T17:17:26.914Z,88.70
2019-04-16T17:20:04.999Z,90.00
2019-04-16T17:22:42.417Z,90.70
2019-04-16T17:25:35.246Z,91.10
2019-04-16T17:27:58.888Z,91.80
2019-04-16T17:30:36.253Z,92.50
2019-04-16T17:33:14.061Z,93.50
2019-04-16T17:35:51.727Z,93.70
2019-04-16T17:38:29.459Z,94.30
2019-04-16T17:41:09.016Z,94.50
2019-04-16T17:44:04.877Z,94.90
2019-04-16T17:47:32.095Z,95.10
2019-04-16T17:50:04.240Z,95.70
2019-04-16T17:53:16.149Z,96.20
2019-04-16T17:56:18.417Z,96.50
2019-04-16T17:58:59.069Z,96.80
2019-04-16T18:02:01.295Z,97.20
2019-04-16T18:04:58.808Z,97.60
2019-04-16T18:07:54.433Z,97.70
2019-04-16T18:10:39.087Z,98.10
2019-04-16T18:13:38.543Z,98.30
2019-04-16T18:16:35.023Z,98.40
2019-04-16T18:19:24.821Z,98.50
2019-04-16T18:22:21.751Z,98.60
2019-04-16T18:25:21.497Z,98.90
2019-04-16T18:28:05.362Z,98.60
2019-04-16T18:30:56.490Z,99.00
2019-04-16T18:33:45.078Z,99.10
2019-04-16T18:36:33.088Z,99.60
2019-04-16T18:39:38.756Z,99.00
2019-04-16T18:42:38.794Z,99.00
2019-04-16T18:45:47.828Z,99.30
2019-04-16T18:48:28.110Z,99.40
2019-04-16T18:51:05.574Z,99.70
2019-04-16T18:53:44.129Z,99.80
2019-04-16T18:56:21.518Z,99.90
2019-04-16T18:58:59.301Z,99.90
2019-04-16T19:01:37.046Z,99.90
2019-04-16T19:04:14.364Z,99.90
2019-04-16T19:06:52.367Z,99.90
2019-04-16T19:09:30.091Z,99.90
2019-04-16T19:12:08.148Z,99.90
2019-04-16T19:14:45.946Z,99.90
2019-04-16T19:17:23.687Z,99.90
2019-04-16T19:20:03.906Z,99.90
2019-04-16T19:22:40.073Z,99.90
2019-04-16T19:25:18.472Z,99.90
2019-04-16T19:27:56.453Z,99.90
2019-04-16T19:30:33.989Z,99.90
2019-04-16T19:33:11.807Z,99.90
2019-04-16T19:35:51.953Z,99.90
2019-04-16T19:38:29.435Z,99.90
2019-04-16T19:41:07.156Z,99.90
2019-04-16T19:43:44.814Z,99.90
2019-04-16T19:46:22.751Z,99.90
2019-04-16T19:49:05.136Z,99.90
2019-04-16T19:51:43.201Z,99.90
2019-04-16T19:54:21.099Z,99.90
2019-04-16T19:56:59.473Z,99.90
2019-04-16T19:59:37.692Z,99.90
2019-04-16T20:02:15.558Z,99.90
2019-04-16T20:04:53.392Z,99.90
2019-04-16T20:07:33.006Z,99.90
2019-04-16T20:10:22.741Z,99.90
2019-04-16T20:13:00.230Z,99.90
2019-04-16T20:15:37.851Z,99.90
2019-04-16T20:18:18.813Z,99.90
2019-04-16T20:21:02.329Z,99.90
2019-04-16T20:23:39.832Z,99.90
2019-04-16T20:26:17.190Z,99.90
2019-04-16T20:28:54.547Z,99.90
2019-04-16T20:31:32.653Z,99.90
2019-04-16T20:34:12.615Z,99.90
2019-04-16T20:37:02.063Z,99.90
2019-04-16T20:39:40.835Z,99.90
2019-04-16T20:42:19.934Z,99.90
2019-04-16T20:44:57.734Z,99.90
2019-04-16T20:47:38.468Z,99.90
2019-04-16T20:50:14.443Z,99.90
2019-04-16T20:52:52.375Z,99.90
2019-04-16T20:55:30.167Z,99.90
2019-04-16T20:58:07.628Z,99.90
2019-04-16T21:00:47.244Z,99.90
2019-04-16T21:03:24.784Z,99.90
